KMAF

Midland International Air and Space Port Airport

Midland, Texas, USA
METAR KMAF 180253Z 10003KT 10SM CLR 09/03 A3003 RMK AO2 SLP159 T00890033 51017
Observed Flight Rules
Dec-18 @ 02:53 UTC (22 minutes ago) Visual Flight Rules
Wind Visibility Clouds
100° at 3 knots 10 miles
  • Clear skies
Temperatures Readings
Current 9°C / 48°F
Dewpoint 3°C / 37°F
Humidity 66%
Altimeter 30.03" Hg
Pressure 1015.9 hPa
Elevation 874
METAR KMAF 180253Z 10003KT 10SM CLR 09/03 A3003 RMK AO2 SLP159 T00890033 51017
Observed Flight Rules
Dec-18 @ 02:53 UTC
(22 minutes ago)
VFR
Wind Visibility
100° at 3 knots 10 miles
Clouds
  • Clear skies
Temperature Dewpoint
9°C / 48°F 3°C / 37°F
Humidity Altimeter Pressure
66% 30.03" Hg 1015.9 hPa